Papere Vagabonde

Aviosuperficie Caposile LIKI

Pista 04


Pista 22

Le immagini vengono aggiornate ogni minuto
Cliccare sull'immagine per l'ingrandimento.

METAR LIPZ

LIPZ 020850Z 34004KT 290V020 CAVOK 17/13 Q1020 NOSIG

TAF LIPZ 020500Z 0206/0312 VRB05KT CAVOK

      

Alba: 07:09
Tramonto: 18:49

LOW LEVEL SIGWX CHART

ALL WEATHER DATA